Time;durP1;ratioP1;P1;durP2;ratioP2;P2;SDS_P1;SDS_P2;PMS_P1;PMS_P2;Temp;Humidity;BMP_temperature;BMP_pressure;BME280_temperature;BME280_humidity;BME280_pressure;Samples;Min_cycle;Max_cycle;Signal;HPM_P1;HPM_P2
2021/04/17 00:01:36;;;;;;;1.90;1.33;;;;;;;8.10;79.54;99372.86;1782259;78;21201;-58
2021/04/17 00:04:04;;;;;;;1.60;1.50;;;;;;;8.10;79.55;99375.54;1811217;77;21250;-59
2021/04/17 00:06:32;;;;;;;1.50;1.17;;;;;;;8.10;79.57;99374.20;1785489;78;21111;-59
2021/04/17 00:09:01;;;;;;;1.50;0.90;;;;;;;8.11;79.58;99378.16;1785599;78;21163;-60
2021/04/17 00:11:29;;;;;;;1.20;1.10;;;;;;;8.09;79.54;99377.34;1812787;77;22138;-59
2021/04/17 00:13:56;;;;;;;1.13;1.03;;;;;;;8.09;79.58;99373.33;1817445;77;21193;-60
2021/04/17 00:16:23;;;;;;;1.10;0.80;;;;;;;8.08;79.60;99378.28;1814747;77;21575;-60
2021/04/17 00:18:51;;;;;;;1.40;1.13;;;;;;;8.09;79.66;99380.03;1784973;78;21142;-59
2021/04/17 00:21:18;;;;;;;2.00;1.30;;;;;;;8.10;79.61;99384.45;1782167;78;21487;-59
2021/04/17 00:23:46;;;;;;;1.87;1.77;;;;;;;8.10;79.56;99381.77;1789229;78;21157;-60
2021/04/17 00:26:13;;;;;;;2.20;2.00;;;;;;;8.11;79.51;99383.98;1811483;77;21122;-60
2021/04/17 00:28:42;;;;;;;2.80;2.60;;;;;;;8.09;79.44;99376.47;1779121;78;21217;-59
2021/04/17 00:31:09;;;;;;;3.93;2.37;;;;;;;8.07;79.36;99377.91;1810810;77;21195;-59
2021/04/17 00:33:37;;;;;;;1.70;1.60;;;;;;;8.04;79.29;99375.35;1785650;78;21585;-58
2021/04/17 00:36:05;;;;;;;2.03;1.20;;;;;;;8.02;79.31;99385.27;1813317;77;21205;-60
2021/04/17 00:38:32;;;;;;;2.53;1.50;;;;;;;8.01;79.35;99387.53;1782757;78;21198;-59
2021/04/17 00:41:02;;;;;;;1.60;1.50;;;;;;;8.00;79.28;99385.79;1783963;78;21191;-59
2021/04/17 00:43:31;;;;;;;2.67;2.47;;;;;;;7.98;79.31;99386.35;1778743;79;21542;-59
2021/04/17 00:46:00;;;;;;;2.17;2.07;;;;;;;7.94;79.29;99385.59;1787813;78;21130;-58
2021/04/17 00:48:27;;;;;;;2.57;2.47;;;;;;;7.92;79.30;99390.14;1786261;78;21714;-59
2021/04/17 00:50:56;;;;;;;2.90;2.57;;;;;;;7.88;79.34;99387.21;1786420;78;21127;-59
2021/04/17 00:53:23;;;;;;;2.90;2.70;;;;;;;7.87;79.36;99385.47;1816962;77;21178;-59
2021/04/17 00:55:51;;;;;;;2.37;2.17;;;;;;;7.85;79.28;99391.35;1808647;77;21162;-58
2021/04/17 00:58:18;;;;;;;1.73;1.63;;;;;;;7.82;79.29;99388.83;1811477;77;21237;-58
2021/04/17 01:00:45;;;;;;;1.53;1.43;;;;;;;7.79;79.33;99393.43;1813933;77;22354;-58
2021/04/17 01:03:41;;;;;;;1.63;1.50;;;;;;;7.76;79.35;99393.55;1814013;77;22168;-58
2021/04/17 01:06:20;;;;;;;;;;;;;;;7.74;79.38;99396.28;1787454;79;21221;-59
2021/04/17 01:08:52;;;;;;;3.13;2.93;;;;;;;7.72;79.40;99398.65;1815443;78;20664;-59
2021/04/17 01:11:37;;;;;;;2.93;2.73;;;;;;;7.67;79.46;99400.16;1782184;78;21868;-59
2021/04/17 01:14:05;;;;;;;2.53;2.40;;;;;;;7.64;79.60;99400.31;1814009;77;20985;-59
2021/04/17 01:16:34;;;;;;;2.73;1.87;;;;;;;7.62;79.60;99398.63;1774551;78;21139;-58
2021/04/17 01:19:04;;;;;;;1.87;1.77;;;;;;;7.62;79.69;99399.97;1811078;77;20992;-60
2021/04/17 01:21:32;;;;;;;2.70;1.70;;;;;;;7.64;79.77;99404.80;1788950;78;21123;-59
2021/04/17 01:24:05;;;;;;;2.07;1.97;;;;;;;7.66;79.84;99394.87;1822528;77;21092;-58
2021/04/17 01:26:32;;;;;;;2.00;1.90;;;;;;;7.69;79.80;99403.66;1783846;78;21213;-58
2021/04/17 01:29:00;;;;;;;2.60;2.40;;;;;;;7.70;79.86;99406.75;1814683;77;21150;-59
2021/04/17 01:31:31;;;;;;;2.67;2.47;;;;;;;7.71;79.75;99407.16;1819782;77;21424;-59
2021/04/17 01:33:59;;;;;;;3.00;2.80;;;;;;;7.71;79.68;99411.17;1793196;78;21131;-58
2021/04/17 01:36:27;;;;;;;2.80;2.60;;;;;;;7.71;79.62;99412.52;1791752;78;21189;-59
2021/04/17 01:39:25;;;;;;;5.53;3.67;;;;;;;7.68;79.57;99413.09;1755369;78;21366;-58
2021/04/17 01:41:58;;;;;;;3.93;2.73;;;;;;;7.66;79.51;99416.30;1729829;80;21196;-59
2021/04/17 01:44:28;;;;;;;2.37;2.17;;;;;;;7.65;79.50;99416.80;1718350;81;21190;-58
2021/04/17 01:47:00;;;;;;;2.10;2.00;;;;;;;7.66;79.59;99418.97;1761117;79;21994;-55
2021/04/17 01:49:29;;;;;;;3.30;2.63;;;;;;;7.66;79.51;99418.51;1761129;79;21158;-56
2021/04/17 01:51:58;;;;;;;3.23;2.93;;;;;;;7.65;79.43;99415.92;1755533;81;21012;-58
2021/04/17 01:54:40;;;;;;;3.10;2.90;;;;;;;7.59;79.46;99417.03;1759394;79;21146;-56
2021/04/17 01:57:07;;;;;;;3.23;3.03;;;;;;;7.54;79.51;99421.25;1758406;79;22053;-56
2021/04/17 01:59:34;;;;;;;4.47;4.20;;;;;;;7.51;79.49;99417.81;1758485;79;21226;-57
2021/04/17 02:02:03;;;;;;;3.97;3.67;;;;;;;7.47;79.54;99422.44;1751789;79;21518;-57
2021/04/17 02:04:33;;;;;;;3.63;3.33;;;;;;;7.47;79.64;99421.56;1754651;79;22128;-58
2021/04/17 02:07:01;;;;;;;3.13;2.93;;;;;;;7.47;79.67;99424.24;1739103;79;21146;-58
2021/04/17 02:09:28;;;;;;;2.87;2.67;;;;;;;7.47;79.70;99429.60;1759256;79;21214;-59
2021/04/17 02:11:55;;;;;;;2.50;2.33;;;;;;;7.46;79.69;99423.37;1755407;79;21616;-59
2021/04/17 02:14:23;;;;;;;3.20;3.00;;;;;;;7.48;79.69;99424.66;1748294;79;21186;-57
2021/04/17 02:17:06;;;;;;;3.40;3.10;;;;;;;7.48;79.66;99427.33;1758732;79;21217;-57
2021/04/17 02:20:02;;;;;;;4.03;3.80;;;;;;;7.45;79.69;99426.98;1727614;82;21156;-56
2021/04/17 02:22:30;;;;;;;4.13;3.93;;;;;;;7.46;79.73;99433.21;1721080;81;21177;-57
2021/04/17 02:24:57;;;;;;;6.37;5.83;;;;;;;7.45;79.72;99431.46;1724642;82;21229;-56
2021/04/17 02:27:25;;;;;;;4.83;4.63;;;;;;;7.44;79.73;99436.41;1741775;80;21193;-59
2021/04/17 02:29:54;;;;;;;4.37;4.13;;;;;;;7.40;79.66;99432.97;1755535;79;22878;-59
2021/04/17 02:32:21;;;;;;;4.77;4.57;;;;;;;7.38;79.62;99442.89;1752162;79;21620;-58
2021/04/17 02:34:49;;;;;;;3.40;3.30;;;;;;;7.33;79.61;99439.51;1756492;79;21201;-58
2021/04/17 02:37:16;;;;;;;3.80;3.60;;;;;;;7.32;79.70;99436.89;1752955;79;21182;-58
2021/04/17 02:39:43;;;;;;;5.10;4.70;;;;;;;7.32;79.69;99447.13;1757746;80;21210;-57
2021/04/17 02:42:11;;;;;;;5.27;4.87;;;;;;;7.31;79.70;99445.42;1766772;78;21457;-58
2021/04/17 02:44:39;;;;;;;5.80;5.40;;;;;;;7.31;79.67;99450.77;1767927;78;21885;-57
2021/04/17 02:47:07;;;;;;;7.90;7.23;;;;;;;7.32;79.69;99453.83;1767189;78;21198;-59
2021/04/17 02:49:35;;;;;;;6.60;6.20;;;;;;;7.34;79.50;99460.47;1724953;81;21654;-58
2021/04/17 02:52:03;;;;;;;6.97;6.47;;;;;;;7.31;79.38;99461.48;1768821;79;21103;-56
2021/04/17 02:54:31;;;;;;;5.40;5.13;;;;;;;7.28;79.34;99468.75;1764951;79;21564;-59
2021/04/17 02:56:58;;;;;;;5.10;4.80;;;;;;;7.25;79.40;99470.20;1764628;79;21249;-56
2021/04/17 02:59:26;;;;;;;5.17;4.90;;;;;;;7.23;79.29;99469.41;1772178;78;21197;-57
2021/04/17 03:01:53;;;;;;;4.73;4.50;;;;;;;7.17;79.43;99475.85;1772348;78;21194;-57
2021/04/17 03:04:21;;;;;;;4.93;4.63;;;;;;;7.16;79.48;99472.77;1769628;78;21103;-59
2021/04/17 03:06:48;;;;;;;6.33;5.93;;;;;;;7.16;79.47;99471.42;1771325;78;21208;-58
2021/04/17 03:09:16;;;;;;;6.90;6.50;;;;;;;7.14;79.44;99475.52;1770055;78;21324;-59
2021/04/17 03:11:43;;;;;;;7.77;7.17;;;;;;;7.16;79.52;99470.09;1767388;78;21218;-59
2021/04/17 03:14:11;;;;;;;8.00;7.40;;;;;;;7.14;79.50;99478.20;1765696;79;21548;-59
2021/04/17 03:16:38;;;;;;;6.30;5.90;;;;;;;7.12;79.57;99480.06;1766747;79;21195;-58
2021/04/17 03:19:07;;;;;;;4.63;4.33;;;;;;;7.12;79.63;99484.07;1760861;79;21379;-58
2021/04/17 03:21:35;;;;;;;3.23;3.03;;;;;;;7.13;79.60;99487.62;1768410;79;21230;-57
2021/04/17 03:24:04;;;;;;;2.27;2.17;;;;;;;7.14;79.70;99490.71;1771527;78;21474;-57
2021/04/17 03:26:32;;;;;;;3.20;3.00;;;;;;;7.14;79.58;99498.28;1768302;79;21091;-58
2021/04/17 03:29:00;;;;;;;2.67;2.47;;;;;;;7.15;79.66;99501.33;1703032;82;21198;-59
2021/04/17 03:31:28;;;;;;;3.10;2.90;;;;;;;7.15;79.64;99497.31;1764613;79;21448;-59
2021/04/17 03:33:55;;;;;;;2.93;2.83;;;;;;;7.14;79.60;99494.73;1771630;78;21154;-57
2021/04/17 03:36:22;;;;;;;3.53;3.07;;;;;;;7.14;79.59;99499.62;1770173;78;21119;-57
2021/04/17 03:38:49;;;;;;;2.90;2.70;;;;;;;7.13;79.44;99507.70;1772539;78;21087;-58
2021/04/17 03:41:17;;;;;;;2.67;2.57;;;;;;;7.10;79.35;99507.80;1728827;82;21571;-57
2021/04/17 03:46:18;;;;;;;1.87;1.77;;;;;;;7.08;79.26;99506.52;1749911;79;22506;-59
2021/04/17 03:48:46;;;;;;;1.83;1.73;;;;;;;7.04;79.21;99514.27;1729736;80;21092;-56
2021/04/17 03:51:13;;;;;;;1.90;1.80;;;;;;;7.03;79.08;99517.00;1729732;80;21652;-60
2021/04/17 03:53:40;;;;;;;2.33;2.23;;;;;;;7.03;79.10;99517.00;1676347;83;21061;-60
2021/04/17 03:56:07;;;;;;;2.80;2.60;;;;;;;7.02;79.09;99520.14;1688282;82;20965;-58
2021/04/17 03:58:35;;;;;;;2.53;2.33;;;;;;;7.01;79.18;99522.87;1685731;82;21135;-60
2021/04/17 04:01:03;;;;;;;2.70;2.50;;;;;;;6.99;79.16;99528.73;1687512;82;21000;-57
2021/04/17 04:03:30;;;;;;;3.50;3.30;;;;;;;6.97;79.27;99522.59;1692581;82;21931;-57
2021/04/17 04:05:58;;;;;;;3.13;2.93;;;;;;;6.98;79.30;99535.02;1685581;82;21163;-57
2021/04/17 04:08:25;;;;;;;2.20;2.00;;;;;;;6.98;79.32;99536.34;1682459;83;21143;-60
2021/04/17 04:10:52;;;;;;;1.37;1.27;;;;;;;7.00;79.38;99539.39;1671655;83;21472;-59
2021/04/17 04:13:20;;;;;;;1.33;1.23;;;;;;;7.03;79.35;99541.96;1722560;80;21112;-57
2021/04/17 04:15:47;;;;;;;1.67;1.27;;;;;;;7.04;79.36;99540.16;1721414;80;21430;-59
2021/04/17 04:18:14;;;;;;;1.77;1.67;;;;;;;7.05;79.30;99549.48;1720866;80;22010;-57
2021/04/17 04:20:42;;;;;;;1.60;1.50;;;;;;;7.05;79.28;99556.17;1729777;80;20981;-59
2021/04/17 04:23:09;;;;;;;1.60;1.47;;;;;;;7.06;79.12;99551.69;1721442;80;21119;-59
2021/04/17 04:25:37;;;;;;;1.73;1.63;;;;;;;7.04;79.07;99561.57;1718718;80;21511;-60
2021/04/17 04:28:05;;;;;;;2.37;1.73;;;;;;;7.04;79.08;99564.25;1719645;80;21379;-60
2021/04/17 04:30:32;;;;;;;1.60;1.50;;;;;;;7.05;79.09;99564.66;1723959;80;21199;-57
2021/04/17 04:32:59;;;;;;;2.03;1.20;;;;;;;7.08;79.13;99569.41;1725522;80;21029;-56
2021/04/17 04:35:26;;;;;;;1.80;1.33;;;;;;;7.10;79.00;99570.70;1719654;80;21160;-57
2021/04/17 04:37:54;;;;;;;1.23;1.13;;;;;;;7.11;79.00;99571.11;1719472;80;21179;-56
2021/04/17 04:40:21;;;;;;;1.63;1.40;;;;;;;7.12;79.02;99573.73;1718601;80;21528;-57
2021/04/17 04:42:49;;;;;;;1.30;1.13;;;;;;;7.16;79.04;99572.68;1704934;80;21195;-55
2021/04/17 04:45:16;;;;;;;1.50;1.40;;;;;;;7.18;79.01;99572.16;1695427;82;21195;-57
2021/04/17 04:47:43;;;;;;;1.40;1.20;;;;;;;7.20;78.97;99571.65;1696040;82;21446;-56
2021/04/17 04:50:12;;;;;;;1.97;1.87;;;;;;;7.22;78.86;99578.29;1699217;82;21247;-56
2021/04/17 04:52:39;;;;;;;1.53;1.43;;;;;;;7.23;78.78;99577.83;1663561;84;21403;-57
2021/04/17 04:55:08;;;;;;;1.40;1.30;;;;;;;7.22;78.63;99584.98;1700033;82;21618;-57
2021/04/17 04:57:35;;;;;;;1.43;1.10;;;;;;;7.22;78.67;99586.32;1698358;82;21215;-57
2021/04/17 05:00:05;;;;;;;1.47;1.10;;;;;;;7.23;78.60;99588.53;1668505;84;21196;-57
2021/04/17 05:02:32;;;;;;;1.43;1.23;;;;;;;7.21;78.46;99597.49;1653656;84;21594;-60
2021/04/17 05:05:00;;;;;;;1.80;1.47;;;;;;;7.19;78.48;99598.01;1651956;84;21401;-59
2021/04/17 05:07:28;;;;;;;1.67;1.57;;;;;;;7.17;78.47;99598.98;1688335;82;21227;-59
2021/04/17 05:09:56;;;;;;;2.43;2.07;;;;;;;7.17;78.48;99600.33;1686681;82;21545;-58
2021/04/17 05:12:24;;;;;;;1.57;1.40;;;;;;;7.17;78.55;99601.20;1691665;82;21176;-58
2021/04/17 05:14:51;;;;;;;1.20;1.10;;;;;;;7.18;78.55;99607.42;1692007;82;21195;-57
2021/04/17 05:17:18;;;;;;;1.30;1.20;;;;;;;7.19;78.61;99605.16;1690700;82;21393;-56
2021/04/17 05:19:47;;;;;;;0.90;0.80;;;;;;;7.22;78.69;99606.40;1696623;82;21560;-56
2021/04/17 05:22:14;;;;;;;1.00;0.90;;;;;;;7.27;78.53;99604.41;1690105;82;21211;-55
2021/04/17 05:24:42;;;;;;;1.03;0.97;;;;;;;7.29;78.54;99610.59;1693046;82;21345;-56
2021/04/17 05:27:09;;;;;;;0.87;0.83;;;;;;;7.29;78.48;99609.25;1706951;82;21232;-56
2021/04/17 05:29:37;;;;;;;0.97;0.90;;;;;;;7.28;78.38;99609.30;1699122;82;21396;-56
2021/04/17 05:32:07;;;;;;;1.10;1.00;;;;;;;7.27;78.43;99615.59;1689257;83;21244;-56
2021/04/17 05:34:35;;;;;;;1.13;1.00;;;;;;;7.27;78.32;99616.92;1693877;83;21176;-55
2021/04/17 05:37:02;;;;;;;0.90;0.80;;;;;;;7.26;78.26;99616.05;1684082;82;21948;-58
2021/04/17 05:39:30;;;;;;;1.00;0.80;;;;;;;7.29;78.26;99623.10;1694045;83;21177;-57
2021/04/17 05:41:57;;;;;;;0.80;0.80;;;;;;;7.30;78.39;99621.72;1688234;82;21183;-56
2021/04/17 05:44:24;;;;;;;0.90;0.80;;;;;;;7.33;78.44;99622.91;1688835;82;21204;-59
2021/04/17 05:46:52;;;;;;;0.93;0.83;;;;;;;7.36;78.28;99627.30;1689289;82;21228;-55
2021/04/17 05:49:19;;;;;;;0.80;0.70;;;;;;;7.38;78.21;99628.13;1693170;82;21176;-56
2021/04/17 05:51:47;;;;;;;0.80;0.80;;;;;;;7.42;78.21;99625.25;1693134;82;21169;-55
2021/04/17 05:54:17;;;;;;;0.80;0.80;;;;;;;7.42;78.12;99627.93;1697477;82;22134;-56
2021/04/17 05:56:44;;;;;;;0.97;0.90;;;;;;;7.42;78.00;99635.09;1693990;82;21485;-58
2021/04/17 05:59:11;;;;;;;1.57;0.70;;;;;;;7.44;78.01;99635.45;1698124;82;21208;-56
2021/04/17 06:01:39;;;;;;;1.20;0.87;;;;;;;7.47;77.87;99639.37;1692757;82;21187;-59
2021/04/17 06:04:08;;;;;;;1.00;0.90;;;;;;;7.49;77.86;99641.96;1702876;82;21192;-56
2021/04/17 06:06:35;;;;;;;1.23;1.13;;;;;;;7.49;77.87;99648.19;1700318;82;21591;-55
2021/04/17 06:09:03;;;;;;;1.13;0.93;;;;;;;7.52;77.76;99656.13;1706255;82;21212;-57
2021/04/17 06:11:31;;;;;;;1.40;1.30;;;;;;;7.55;77.60;99647.11;1700009;82;21731;-58
2021/04/17 06:13:58;;;;;;;1.33;1.20;;;;;;;7.57;77.49;99656.81;1656803;84;21206;-59
2021/04/17 06:16:25;;;;;;;1.90;1.07;;;;;;;7.59;77.41;99658.97;1691576;82;21740;-60
2021/04/17 06:18:54;;;;;;;1.30;1.00;;;;;;;7.58;77.05;99661.24;1682950;82;21726;-61
2021/04/17 06:21:22;;;;;;;1.00;0.83;;;;;;;7.56;77.15;99665.81;1687919;82;21241;-58
2021/04/17 06:23:49;;;;;;;0.60;0.60;;;;;;;7.55;77.29;99672.55;1684265;82;21166;-61
2021/04/17 06:26:16;;;;;;;1.00;0.90;;;;;;;7.56;77.26;99664.47;1691132;82;21181;-58
2021/04/17 06:28:43;;;;;;;0.90;0.80;;;;;;;7.58;77.19;99666.59;1689377;82;21156;-59
2021/04/17 06:31:11;;;;;;;1.10;0.80;;;;;;;7.62;77.34;99670.52;1689150;82;21164;-59
2021/04/17 06:33:38;;;;;;;0.93;0.87;;;;;;;7.64;77.29;99666.86;1693816;82;21324;-59
2021/04/17 06:36:07;;;;;;;0.90;0.90;;;;;;;7.67;77.00;99671.20;1691400;82;20982;-58
2021/04/17 06:38:35;;;;;;;1.10;1.00;;;;;;;7.69;77.07;99670.22;1684898;83;21145;-59
2021/04/17 06:41:03;;;;;;;0.80;0.80;;;;;;;7.74;77.08;99672.75;1689935;82;21112;-60
2021/04/17 06:43:31;;;;;;;1.10;0.80;;;;;;;7.79;77.26;99665.39;1673850;82;21492;-61
2021/04/17 06:45:58;;;;;;;0.50;0.50;;;;;;;7.86;77.18;99666.44;1690904;82;21302;-58
2021/04/17 06:48:26;;;;;;;0.80;0.70;;;;;;;7.90;77.01;99668.08;1689661;82;21122;-60
2021/04/17 06:50:54;;;;;;;1.37;0.70;;;;;;;7.98;76.73;99668.66;1689128;82;21123;-59
2021/04/17 06:53:21;;;;;;;1.00;0.90;;;;;;;8.07;77.18;99673.25;1688567;82;21023;-58
2021/04/17 06:55:51;;;;;;;0.97;0.93;;;;;;;8.17;77.20;99665.22;1693992;82;21380;-58
2021/04/17 06:58:19;;;;;;;0.90;0.80;;;;;;;8.25;77.12;99664.48;1692288;82;21140;-58
2021/04/17 07:00:47;;;;;;;0.83;0.80;;;;;;;8.29;76.93;99667.42;1691977;82;21164;-60
2021/04/17 07:03:17;;;;;;;1.63;0.83;;;;;;;8.30;76.66;99666.49;1687832;82;21587;-58
2021/04/17 07:05:45;;;;;;;1.57;0.90;;;;;;;8.29;76.47;99671.45;1685596;82;21120;-60
2021/04/17 07:08:12;;;;;;;0.90;0.80;;;;;;;8.30;76.37;99675.88;1690503;82;21204;-58
2021/04/17 07:10:39;;;;;;;1.00;0.90;;;;;;;8.31;76.45;99679.88;1697072;82;21120;-57
2021/04/17 07:13:10;;;;;;;0.90;0.90;;;;;;;8.31;76.46;99686.59;1689072;82;20966;-59
2021/04/17 07:15:38;;;;;;;1.60;1.50;;;;;;;8.28;76.48;99683.98;1689019;82;21112;-57
2021/04/17 07:18:29;;;;;;;1.40;1.30;;;;;;;8.29;76.29;99688.87;1697635;82;21136;-57
2021/04/17 07:21:19;;;;;;;1.53;1.40;;;;;;;8.30;76.21;99686.61;1686426;82;23488;-59
2021/04/17 07:23:48;;;;;;;1.83;1.40;;;;;;;8.29;76.23;99684.39;1682610;82;21164;-59
2021/04/17 07:26:27;;;;;;;1.30;1.20;;;;;;;8.28;76.12;99693.37;1682188;82;21211;-56
2021/04/17 07:28:59;;;;;;;1.30;1.20;;;;;;;8.30;76.20;99695.99;1691119;82;21192;-57
2021/04/17 07:31:29;;;;;;;2.53;1.00;;;;;;;8.31;76.14;99697.78;1685373;82;21183;-56
2021/04/17 07:33:57;;;;;;;0.90;0.73;;;;;;;8.32;76.04;99697.72;1693131;82;22297;-56
2021/04/17 07:36:30;;;;;;;1.10;1.00;;;;;;;8.36;75.86;99694.43;1697081;82;21407;-56
2021/04/17 07:38:57;;;;;;;1.73;0.93;;;;;;;8.42;75.99;99696.86;1683539;82;21255;-56
2021/04/17 07:41:25;;;;;;;1.17;1.03;;;;;;;8.48;75.70;99694.41;1686038;82;21533;-56
2021/04/17 07:43:59;;;;;;;1.33;1.20;;;;;;;8.55;75.62;99698.59;1689978;82;21724;-55
2021/04/17 07:46:30;;;;;;;1.20;1.03;;;;;;;8.63;75.71;99701.37;1695977;82;22144;-58
2021/04/17 07:49:16;;;;;;;1.00;0.90;;;;;;;8.75;75.01;99700.00;1820928;76;22939;-60
2021/04/17 07:52:09;;;;;;;0.80;0.73;;;;;;;8.79;74.82;99709.65;1800075;77;21461;-57
2021/04/17 07:54:40;;;;;;;2.27;0.80;;;;;;;8.86;74.58;99696.37;1806106;77;21366;-57
2021/04/17 07:57:10;;;;;;;0.80;0.80;;;;;;;8.97;73.92;99700.83;1795855;77;21486;-57
2021/04/17 07:59:39;;;;;;;1.02;0.82;;;;;;;8.97;73.73;99698.14;1790135;77;21450;-56
2021/04/17 08:02:06;;;;;;;1.10;0.87;;;;;;;9.00;73.41;99699.83;1793996;77;21159;-58
2021/04/17 08:04:34;;;;;;;0.93;0.70;;;;;;;9.03;73.40;99695.66;1794140;77;21385;-57
2021/04/17 08:07:01;;;;;;;1.00;0.90;;;;;;;9.13;73.45;99698.82;1790630;77;22549;-56
2021/04/17 08:09:30;;;;;;;1.83;0.80;;;;;;;9.21;72.82;99704.27;1790840;77;21246;-56
2021/04/17 08:11:59;;;;;;;0.70;0.70;;;;;;;9.29;72.76;99706.61;1796585;77;20984;-59
2021/04/17 08:14:28;;;;;;;1.03;0.80;;;;;;;9.34;72.56;99700.59;1795376;77;21404;-57
2021/04/17 08:16:56;;;;;;;1.20;1.10;;;;;;;9.37;72.09;99703.99;1796801;77;21091;-57
2021/04/17 08:19:24;;;;;;;1.17;0.90;;;;;;;9.39;72.22;99709.31;1795382;77;21420;-55
2021/04/17 08:21:51;;;;;;;0.80;0.80;;;;;;;9.39;72.58;99704.81;1791604;77;21191;-59
2021/04/17 08:24:26;;;;;;;2.62;0.95;;;;;;;9.40;72.77;99706.56;1795967;77;21634;-56
2021/04/17 08:26:58;;;;;;;0.78;0.70;;;;;;;9.40;72.75;99708.37;1797998;77;21092;-56
2021/04/17 08:29:54;;;;;;;0.90;0.70;;;;;;;9.43;72.64;99713.15;1799474;77;21187;-56
2021/04/17 08:32:38;;;;;;;0.80;0.70;;;;;;;9.45;72.90;99707.22;1797494;77;21298;-57
2021/04/17 08:35:17;;;;;;;0.80;0.80;;;;;;;9.46;72.64;99710.31;1801155;77;21448;-56
2021/04/17 08:37:56;;;;;;;0.62;0.62;;;;;;;9.47;72.44;99706.69;1806552;77;21467;-56
2021/04/17 08:40:41;;;;;;;0.75;0.75;;;;;;;9.48;72.50;99711.13;1794982;77;21194;-59
2021/04/17 08:43:17;;;;;;;0.70;0.70;;;;;;;9.49;72.30;99710.65;1780821;78;21178;-59
2021/04/17 08:46:10;;;;;;;0.70;0.70;;;;;;;9.47;72.38;99712.06;1774979;78;21421;-57
2021/04/17 08:49:15;;;;;;;0.60;0.60;;;;;;;9.42;72.03;99710.06;1765523;78;22539;-57
2021/04/17 08:51:42;;;;;;;0.62;0.60;;;;;;;9.38;72.15;99712.46;1667101;83;21189;-57
2021/04/17 08:54:31;;;;;;;0.55;0.47;;;;;;;9.36;72.06;99714.34;1637167;85;21185;-57
2021/04/17 08:57:05;;;;;;;0.62;0.55;;;;;;;9.33;71.71;99717.17;1664483;83;21159;-56
2021/04/17 08:59:35;;;;;;;0.70;0.60;;;;;;;9.29;71.98;99715.55;1676300;83;21408;-56
2021/04/17 09:02:14;;;;;;;0.60;0.60;;;;;;;9.26;72.15;99718.86;1654612;84;21108;-58
2021/04/17 09:05:01;;;;;;;1.57;0.70;;;;;;;9.19;71.80;99717.34;1650763;84;21202;-58
2021/04/17 09:07:30;;;;;;;0.80;0.80;;;;;;;9.14;71.78;99720.72;1674997;83;21270;-57
2021/04/17 09:10:26;;;;;;;0.67;0.60;;;;;;;9.08;71.88;99719.17;1664465;84;21228;-59
2021/04/17 09:13:16;;;;;;;0.70;0.70;;;;;;;9.03;72.04;99720.69;1666160;83;21834;-58
2021/04/17 09:15:53;;;;;;;1.77;0.67;;;;;;;9.00;72.40;99726.22;1659105;83;21512;-57
2021/04/17 09:18:41;;;;;;;1.10;0.70;;;;;;;8.98;72.57;99720.50;1665391;83;21211;-59
2021/04/17 09:21:22;;;;;;;2.03;0.80;;;;;;;8.98;72.89;99721.38;1669901;83;21226;-56
2021/04/17 09:23:53;;;;;;;3.17;2.87;;;;;;;9.00;73.25;99719.97;1677152;83;21230;-57
2021/04/17 09:26:34;;;;;;;5.10;3.23;;;;;;;9.02;73.45;99727.00;1625478;85;21296;-57
2021/04/17 09:29:22;;;;;;;1.40;1.30;;;;;;;9.06;73.74;99725.95;1676416;83;21653;-59
2021/04/17 09:31:51;;;;;;;3.47;3.27;;;;;;;9.08;73.84;99724.55;1664151;84;21138;-59
2021/04/17 09:34:20;;;;;;;5.50;5.20;;;;;;;9.08;74.02;99724.55;1675982;83;21198;-58
2021/04/17 09:36:50;;;;;;;2.17;2.07;;;;;;;9.09;73.94;99728.98;1670797;83;21241;-57
2021/04/17 09:39:38;;;;;;;1.20;1.10;;;;;;;9.06;74.00;99734.00;1657938;84;21673;-58
2021/04/17 09:42:06;;;;;;;8.57;8.07;;;;;;;9.07;73.98;99728.16;1696681;82;21555;-58
2021/04/17 09:44:45;;;;;;;7.17;6.77;;;;;;;9.07;74.04;99733.06;1700339;82;21210;-59
2021/04/17 09:47:15;;;;;;;2.23;2.03;;;;;;;9.05;74.04;99735.41;1697504;82;21219;-58
2021/04/17 09:49:45;;;;;;;1.95;1.85;;;;;;;9.03;73.96;99731.44;1702082;82;21111;-56
2021/04/17 09:52:18;;;;;;;3.23;2.70;;;;;;;9.00;73.96;99742.33;1703104;82;22280;-59
2021/04/17 09:54:44;;;;;;;2.13;1.80;;;;;;;8.97;73.95;99742.44;1702906;82;21154;-57
2021/04/17 09:57:11;;;;;;;2.33;2.17;;;;;;;8.93;73.98;99744.83;1699182;82;21208;-57
2021/04/17 09:59:39;;;;;;;2.13;1.93;;;;;;;8.90;74.15;99743.64;1700442;82;21147;-57
2021/04/17 10:02:06;;;;;;;1.80;1.67;;;;;;;8.90;74.35;99749.47;1698985;82;21712;-59
2021/04/17 10:04:57;;;;;;;2.07;1.97;;;;;;;8.89;74.35;99749.94;1705137;82;23122;-58
2021/04/17 10:07:23;;;;;;;2.03;1.67;;;;;;;8.87;74.51;99749.13;1707517;82;21151;-59
2021/04/17 10:10:00;;;;;;;1.98;1.85;;;;;;;8.89;74.78;99758.46;1702339;82;21210;-57
2021/04/17 10:12:29;;;;;;;2.85;2.65;;;;;;;8.90;74.90;99758.41;1706229;82;21112;-56
2021/04/17 10:15:22;;;;;;;3.97;3.77;;;;;;;8.91;74.97;99752.56;1674291;82;21206;-59
2021/04/17 10:17:51;;;;;;;5.47;5.07;;;;;;;8.93;74.90;99760.94;1702474;82;21429;-56
2021/04/17 10:20:19;;;;;;;4.47;4.17;;;;;;;8.94;74.93;99761.34;1704258;82;21233;-55
2021/04/17 10:23:15;;;;;;;3.20;3.00;;;;;;;8.93;74.83;99767.66;1702067;82;21178;-56
2021/04/17 10:25:46;;;;;;;3.02;2.83;;;;;;;8.92;74.78;99763.25;1731771;81;28314;-57
2021/04/17 10:28:23;;;;;;;2.33;2.15;;;;;;;8.92;74.66;99771.77;1734525;81;21503;-59
2021/04/17 10:30:55;;;;;;;2.17;2.08;;;;;;;8.90;74.71;99769.61;1737966;81;21784;-60
2021/04/17 10:33:29;;;;;;;2.43;1.70;;;;;;;8.89;74.73;99765.17;1735702;81;21233;-59
2021/04/17 10:35:58;;;;;;;1.98;1.87;;;;;;;8.90;74.72;99765.58;1738499;81;21185;-57
2021/04/17 10:38:32;;;;;;;3.50;2.37;;;;;;;8.90;74.69;99766.92;1738056;81;21186;-57
2021/04/17 10:41:02;;;;;;;2.30;2.10;;;;;;;8.90;74.71;99769.14;1761676;80;21623;-59
2021/04/17 10:43:29;;;;;;;3.02;2.83;;;;;;;8.91;74.70;99778.95;1735098;81;21417;-59
2021/04/17 10:45:59;;;;;;;2.40;2.20;;;;;;;8.92;74.75;99779.82;1767792;79;21162;-58
2021/04/17 10:48:27;;;;;;;1.90;1.80;;;;;;;8.93;74.49;99779.73;1781364;78;21204;-58
2021/04/17 10:51:07;;;;;;;2.23;1.90;;;;;;;8.94;74.60;99782.83;1779400;78;21597;-56
2021/04/17 10:53:37;;;;;;;2.40;1.77;;;;;;;8.94;74.53;99781.48;1768237;79;21515;-56
2021/04/17 10:56:19;;;;;;;2.67;2.47;;;;;;;8.97;74.58;99789.42;1770062;79;21199;-57
2021/04/17 10:58:56;;;;;;;2.70;2.50;;;;;;;8.99;74.45;99788.90;1762837;79;21181;-58
2021/04/17 11:03:49;;;;;;;3.10;2.90;;;;;;;9.03;74.54;99787.81;1823485;76;22024;-58
2021/04/17 11:06:28;;;;;;;2.53;2.33;;;;;;;8.97;74.61;99789.89;1796480;77;21569;-58
2021/04/17 11:09:17;;;;;;;2.65;2.10;;;;;;;8.97;74.91;99796.14;1792856;77;21391;-57
2021/04/17 11:11:53;;;;;;;2.55;2.35;;;;;;;8.97;75.22;99793.91;1796779;77;21262;-59
2021/04/17 11:14:22;;;;;;;3.20;2.98;;;;;;;8.97;75.26;99804.19;1800078;77;21129;-57
2021/04/17 11:16:51;;;;;;;4.10;3.70;;;;;;;8.95;75.42;99802.49;1797957;77;21107;-59
2021/04/17 11:19:32;;;;;;;3.30;3.10;;;;;;;8.95;75.66;99797.13;1802913;77;21415;-57
2021/04/17 11:22:13;;;;;;;2.72;2.52;;;;;;;8.95;75.70;99801.16;1807405;77;21190;-57
2021/04/17 11:25:04;;;;;;;3.03;2.77;;;;;;;8.95;75.81;99804.71;1807075;77;21042;-59
2021/04/17 11:27:33;;;;;;;2.33;2.13;;;;;;;8.96;75.77;99802.91;1853918;75;21173;-57
2021/04/17 11:30:04;;;;;;;2.30;2.10;;;;;;;8.98;75.88;99801.91;1859748;75;21831;-57
2021/04/17 11:32:32;;;;;;;5.78;2.20;;;;;;;9.01;75.90;99801.80;1848821;75;21160;-56
2021/04/17 11:35:07;;;;;;;2.17;2.08;;;;;;;9.05;75.92;99807.44;1860156;75;21194;-55
2021/04/17 11:37:35;;;;;;;3.20;3.00;;;;;;;9.09;76.06;99803.70;1857366;75;21138;-57
2021/04/17 11:40:05;;;;;;;3.40;2.72;;;;;;;9.13;75.93;99802.20;1856909;75;21168;-58
2021/04/17 11:42:33;;;;;;;2.80;2.12;;;;;;;9.14;75.75;99802.16;1846323;75;21598;-56
2021/04/17 11:45:01;;;;;;;3.98;3.67;;;;;;;9.14;75.66;99797.25;1846579;75;21161;-55
2021/04/17 11:47:28;;;;;;;4.47;3.00;;;;;;;9.14;75.64;99793.22;1851278;75;21772;-56
2021/04/17 11:49:55;;;;;;;2.98;2.80;;;;;;;9.16;75.62;99799.41;1857852;75;21442;-56
2021/04/17 11:52:23;;;;;;;4.75;4.35;;;;;;;9.15;75.36;99793.63;1851504;75;21155;-56
2021/04/17 11:54:52;;;;;;;3.00;2.58;;;;;;;9.09;75.29;99799.67;1811937;77;21908;-57
2021/04/17 11:57:19;;;;;;;2.12;2.02;;;;;;;9.09;75.51;99805.05;1792891;78;22016;-59
2021/04/17 11:59:47;;;;;;;3.43;3.13;;;;;;;9.11;75.41;99805.83;1795268;78;21155;-59
2021/04/17 12:02:14;;;;;;;3.52;3.22;;;;;;;9.16;75.47;99808.34;1794741;78;21550;-58
2021/04/17 12:04:42;;;;;;;3.75;3.40;;;;;;;9.21;75.33;99800.95;1794960;78;21491;-58